Time;durP1;ratioP1;P1;durP2;ratioP2;P2;SDS_P1;SDS_P2;PMS_P1;PMS_P2;Temp;Humidity;BMP_temperature;BMP_pressure;BME280_temperature;BME280_humidity;BME280_pressure;Samples;Min_cycle;Max_cycle;Signal;HPM_P1;HPM_P2
2023/04/03 00:01:53;;;;;;;2.60;2.40;;;4.90;99.90;;;;;;6001191;23;20305;-69
2023/04/03 00:04:21;;;;;;;3.95;2.60;;;5.00;99.90;;;;;;6001013;23;20218;-69
2023/04/03 00:06:48;;;;;;;3.40;2.58;;;5.00;99.90;;;;;;5999708;23;20353;-69
2023/04/03 00:09:14;;;;;;;2.95;2.65;;;5.00;99.90;;;;;;6000166;23;20277;-69
2023/04/03 00:11:42;;;;;;;2.80;2.60;;;4.90;99.90;;;;;;5999599;23;20225;-69
2023/04/03 00:14:09;;;;;;;2.70;2.50;;;4.90;99.90;;;;;;6001550;23;20302;-69
2023/04/03 00:16:36;;;;;;;3.00;2.80;;;4.90;99.90;;;;;;6003015;23;20198;-69
2023/04/03 00:19:05;;;;;;;3.10;2.47;;;4.90;99.90;;;;;;5999902;23;20277;-69
2023/04/03 00:21:32;;;;;;;2.83;2.47;;;4.90;99.90;;;;;;6001041;23;20190;-70
2023/04/03 00:23:59;;;;;;;2.97;2.72;;;5.00;99.90;;;;;;6000572;23;20198;-69
2023/04/03 00:26:26;;;;;;;3.03;2.72;;;4.90;99.90;;;;;;5998103;23;20289;-69
2023/04/03 00:28:53;;;;;;;2.80;2.60;;;4.90;99.90;;;;;;6000040;23;20269;-70
2023/04/03 00:31:20;;;;;;;3.28;2.83;;;5.00;99.90;;;;;;5995800;23;20200;-69
2023/04/03 00:33:47;;;;;;;2.80;2.60;;;4.90;99.90;;;;;;6003507;23;20350;-69
2023/04/03 00:36:15;;;;;;;2.85;2.65;;;4.90;99.90;;;;;;6001983;23;20273;-69
2023/04/03 00:38:42;;;;;;;2.85;2.55;;;4.90;99.90;;;;;;6003875;23;20186;-69
2023/04/03 00:41:10;;;;;;;2.75;2.55;;;4.90;99.90;;;;;;5990874;23;20197;-69
2023/04/03 00:43:38;;;;;;;2.97;2.65;;;4.90;99.90;;;;;;6003439;23;20647;-69
2023/04/03 00:46:05;;;;;;;2.33;2.13;;;4.90;99.90;;;;;;5998303;23;20273;-69
2023/04/03 00:48:35;;;;;;;2.83;2.63;;;4.90;99.90;;;;;;5999479;23;20198;-69
2023/04/03 00:51:04;;;;;;;2.92;2.60;;;4.90;99.90;;;;;;6004897;23;20241;-69
2023/04/03 00:53:38;;;;;;;3.03;2.72;;;4.90;99.90;;;;;;6001193;23;20194;-69
2023/04/03 00:56:10;;;;;;;3.03;2.72;;;4.90;99.90;;;;;;5993300;23;20374;-69
2023/04/03 00:58:40;;;;;;;3.50;2.70;;;4.90;99.90;;;;;;6003590;23;20202;-69
2023/04/03 01:01:12;;;;;;;2.78;2.58;;;4.90;99.90;;;;;;6000355;23;20197;-69
2023/04/03 01:03:39;;;;;;;3.88;2.45;;;4.80;99.90;;;;;;6002958;23;20595;-70
2023/04/03 01:06:06;;;;;;;4.50;3.03;;;4.90;99.90;;;;;;6003604;23;20647;-69
2023/04/03 01:08:36;;;;;;;2.90;2.70;;;4.80;99.90;;;;;;6000697;23;20681;-69
2023/04/03 01:11:04;;;;;;;2.83;2.63;;;4.80;99.90;;;;;;6000101;23;20214;-69
2023/04/03 01:13:33;;;;;;;3.17;2.90;;;4.80;99.90;;;;;;6003128;23;20198;-69
2023/04/03 01:16:02;;;;;;;2.85;2.65;;;4.80;99.90;;;;;;6001713;23;20256;-69
2023/04/03 01:18:30;;;;;;;3.00;2.70;;;4.80;99.90;;;;;;6003438;23;20186;-69
2023/04/03 01:21:31;;;;;;;3.15;2.88;;;4.80;99.90;;;;;;5992879;23;20222;-69
2023/04/03 01:24:11;;;;;;;3.53;2.50;;;4.80;99.90;;;;;;5997584;23;20686;-69
2023/04/03 01:26:38;;;;;;;2.67;2.47;;;4.80;99.90;;;;;;6001527;23;20221;-69
2023/04/03 01:29:05;;;;;;;2.72;2.53;;;4.80;99.90;;;;;;6003209;23;20187;-69
2023/04/03 01:31:50;;;;;;;3.85;2.75;;;4.80;99.90;;;;;;6001424;23;20238;-70
2023/04/03 01:34:17;;;;;;;2.80;2.60;;;4.80;99.90;;;;;;6001294;23;20305;-70
2023/04/03 01:36:44;;;;;;;3.08;2.88;;;4.80;99.90;;;;;;5996833;23;20274;-70
2023/04/03 01:39:12;;;;;;;3.72;3.42;;;4.80;99.90;;;;;;5999485;23;20698;-67
2023/04/03 01:41:39;;;;;;;2.92;2.60;;;4.70;99.90;;;;;;5997497;23;20233;-69
2023/04/03 01:44:06;;;;;;;4.55;3.22;;;4.70;99.90;;;;;;6000966;23;20194;-69
2023/04/03 01:46:33;;;;;;;2.90;2.63;;;4.70;99.90;;;;;;6002089;23;20204;-69
2023/04/03 01:49:02;;;;;;;3.30;3.00;;;4.60;99.90;;;;;;6003483;23;20278;-70
2023/04/03 01:51:29;;;;;;;3.03;2.83;;;4.60;99.90;;;;;;6000164;23;20254;-69
2023/04/03 01:53:56;;;;;;;3.20;3.00;;;4.30;99.90;;;;;;6000868;23;20198;-70
2023/04/03 01:56:25;;;;;;;4.90;3.13;;;4.40;99.90;;;;;;5996233;23;20201;-70
2023/04/03 01:58:52;;;;;;;2.88;2.67;;;4.50;99.90;;;;;;6002738;23;20241;-67
2023/04/03 02:01:19;;;;;;;3.30;3.00;;;4.50;99.90;;;;;;5997734;23;20519;-67
2023/04/03 02:03:46;;;;;;;3.33;3.03;;;4.40;99.90;;;;;;6003206;23;20265;-68
2023/04/03 02:06:14;;;;;;;3.50;3.20;;;4.50;99.90;;;;;;5999947;23;20252;-68
2023/04/03 02:08:42;;;;;;;4.80;2.90;;;4.50;99.90;;;;;;5987916;23;20194;-67
2023/04/03 02:11:09;;;;;;;3.92;3.20;;;4.50;99.90;;;;;;5997356;23;20210;-67
2023/04/03 02:13:36;;;;;;;3.13;2.90;;;4.60;99.90;;;;;;6002004;23;20194;-69
2023/04/03 02:16:08;;;;;;;4.85;2.58;;;4.60;99.90;;;;;;6002395;23;20277;-68
2023/04/03 02:18:35;;;;;;;2.97;2.78;;;4.70;99.90;;;;;;6000202;23;20199;-68
2023/04/03 02:21:02;;;;;;;3.10;2.70;;;4.70;99.90;;;;;;5999727;23;20222;-68
2023/04/03 02:23:31;;;;;;;3.42;3.00;;;4.70;99.90;;;;;;5999631;23;20268;-68
2023/04/03 02:26:05;;;;;;;3.45;2.75;;;4.70;99.90;;;;;;5995062;23;20217;-68
2023/04/03 02:28:33;;;;;;;2.60;2.40;;;4.70;99.90;;;;;;6001025;23;20251;-68
2023/04/03 02:31:00;;;;;;;3.28;2.97;;;4.70;99.90;;;;;;6000569;23;20289;-68
2023/04/03 02:33:27;;;;;;;3.10;2.30;;;4.70;99.90;;;;;;5992738;23;20614;-68
2023/04/03 02:35:55;;;;;;;3.80;2.55;;;4.70;99.90;;;;;;6002687;23;20222;-68
2023/04/03 02:38:22;;;;;;;2.92;2.70;;;4.70;99.90;;;;;;6001764;23;20194;-68
2023/04/03 02:40:51;;;;;;;2.85;2.65;;;4.60;99.90;;;;;;5995349;23;20635;-68
2023/04/03 02:43:18;;;;;;;3.67;2.33;;;4.60;99.90;;;;;;6002361;23;20190;-68
2023/04/03 02:45:46;;;;;;;3.67;2.80;;;4.60;99.90;;;;;;6002010;23;20821;-68
2023/04/03 02:48:14;;;;;;;3.25;2.60;;;4.60;99.90;;;;;;6002477;23;20194;-68
2023/04/03 02:50:42;;;;;;;2.60;2.40;;;4.60;99.90;;;;;;6001093;23;20277;-67
2023/04/03 02:53:09;;;;;;;2.45;2.25;;;4.60;99.90;;;;;;5997894;23;20195;-68
2023/04/03 02:55:36;;;;;;;2.63;2.40;;;4.60;99.90;;;;;;6004761;23;20225;-68
2023/04/03 02:58:04;;;;;;;3.00;2.70;;;4.60;99.90;;;;;;6000182;23;20273;-68
2023/04/03 03:00:32;;;;;;;2.30;2.10;;;4.60;99.90;;;;;;5987867;23;20271;-68
2023/04/03 03:02:59;;;;;;;2.75;2.20;;;4.60;99.90;;;;;;6002409;23;20276;-68
2023/04/03 03:05:27;;;;;;;2.10;2.00;;;4.60;99.90;;;;;;6002183;23;20551;-68
2023/04/03 03:07:55;;;;;;;2.25;2.05;;;4.60;99.90;;;;;;5997947;23;20669;-67
2023/04/03 03:10:22;;;;;;;2.55;2.30;;;4.60;99.90;;;;;;6002564;23;20218;-68
2023/04/03 03:12:49;;;;;;;2.47;2.28;;;4.60;99.90;;;;;;6001824;23;20256;-67
2023/04/03 03:15:19;;;;;;;2.70;2.50;;;4.70;99.90;;;;;;6000253;23;20260;-68
2023/04/03 03:17:46;;;;;;;3.22;2.63;;;4.70;99.90;;;;;;5999454;23;20293;-68
2023/04/03 03:20:15;;;;;;;3.40;2.60;;;4.70;99.90;;;;;;6000359;23;20296;-68
2023/04/03 03:22:42;;;;;;;4.95;2.40;;;4.70;99.90;;;;;;5997536;23;20717;-68
2023/04/03 03:25:09;;;;;;;2.97;2.55;;;4.70;99.90;;;;;;5985223;23;20205;-68
2023/04/03 03:27:37;;;;;;;2.88;2.10;;;4.70;99.90;;;;;;6000727;23;20204;-68
2023/04/03 03:30:05;;;;;;;2.42;2.20;;;4.70;99.90;;;;;;5999608;23;20321;-69
2023/04/03 03:32:34;;;;;;;3.15;2.95;;;4.70;99.90;;;;;;5999944;23;20190;-68
2023/04/03 03:35:01;;;;;;;3.00;2.80;;;4.70;99.90;;;;;;6002637;23;20206;-68
2023/04/03 03:37:28;;;;;;;3.40;2.88;;;4.70;99.90;;;;;;6002317;23;20194;-68
2023/04/03 03:39:55;;;;;;;3.50;2.80;;;4.70;99.90;;;;;;5998172;23;20225;-68
2023/04/03 03:42:22;;;;;;;2.70;2.50;;;4.60;99.90;;;;;;6001073;23;20232;-69
2023/04/03 03:44:49;;;;;;;2.55;2.00;;;4.60;99.90;;;;;;6004040;23;20734;-68
2023/04/03 03:47:16;;;;;;;2.95;2.58;;;4.60;99.90;;;;;;6000965;23;20190;-68
2023/04/03 03:49:45;;;;;;;2.60;2.40;;;4.60;99.90;;;;;;5997951;23;20783;-68
2023/04/03 03:52:12;;;;;;;2.70;2.50;;;4.60;99.90;;;;;;6000905;23;20205;-67
2023/04/03 03:54:39;;;;;;;2.75;2.35;;;4.60;99.90;;;;;;6002921;23;21204;-68
2023/04/03 03:57:06;;;;;;;2.40;2.20;;;4.60;99.90;;;;;;6000425;23;20736;-68
2023/04/03 03:59:33;;;;;;;2.90;2.60;;;4.60;99.90;;;;;;6003116;23;20214;-68
2023/04/03 04:02:00;;;;;;;2.50;2.30;;;4.50;99.90;;;;;;5996158;23;20693;-68
2023/04/03 04:04:27;;;;;;;2.70;2.50;;;4.50;99.90;;;;;;5999689;23;21113;-68
2023/04/03 04:06:56;;;;;;;3.08;2.80;;;4.50;99.90;;;;;;5998638;23;20194;-68
2023/04/03 04:09:23;;;;;;;2.72;2.53;;;4.40;99.90;;;;;;6003892;23;20241;-68
2023/04/03 04:11:50;;;;;;;3.35;3.05;;;4.40;99.90;;;;;;6002362;23;20198;-68
2023/04/03 04:14:18;;;;;;;2.80;2.60;;;4.50;99.90;;;;;;6000722;23;20515;-68
2023/04/03 04:16:45;;;;;;;2.95;2.75;;;4.50;99.90;;;;;;6002590;23;20222;-68
2023/04/03 04:19:12;;;;;;;2.83;2.63;;;4.50;99.90;;;;;;6003947;23;20228;-68
2023/04/03 04:21:41;;;;;;;2.70;2.50;;;4.60;99.90;;;;;;6000903;23;20190;-68
2023/04/03 04:24:10;;;;;;;2.95;2.20;;;4.60;99.90;;;;;;5999344;23;20627;-68
2023/04/03 04:26:37;;;;;;;2.85;2.65;;;4.70;99.90;;;;;;6002177;23;21006;-68
2023/04/03 04:29:04;;;;;;;2.95;2.55;;;4.70;99.90;;;;;;5999019;23;20704;-68
2023/04/03 04:31:31;;;;;;;3.10;2.58;;;4.60;99.90;;;;;;5994805;23;20596;-68
2023/04/03 04:33:58;;;;;;;3.72;2.30;;;4.60;99.90;;;;;;5997456;23;20272;-68
2023/04/03 04:36:25;;;;;;;2.65;2.10;;;4.50;99.90;;;;;;6003977;23;20301;-68
2023/04/03 04:38:53;;;;;;;2.60;2.40;;;4.50;99.90;;;;;;6000581;23;20785;-68
2023/04/03 04:41:22;;;;;;;2.80;2.60;;;4.50;99.90;;;;;;6002274;23;20186;-68
2023/04/03 04:43:50;;;;;;;2.75;2.40;;;4.50;99.90;;;;;;6003632;23;20195;-68
2023/04/03 04:46:17;;;;;;;3.00;2.80;;;4.50;99.90;;;;;;6000649;23;20623;-68
2023/04/03 04:48:44;;;;;;;2.83;2.63;;;4.60;99.90;;;;;;5997011;23;20213;-68
2023/04/03 04:51:12;;;;;;;3.20;2.88;;;4.60;99.90;;;;;;6001316;23;20286;-68
2023/04/03 04:53:39;;;;;;;2.70;2.50;;;4.60;99.90;;;;;;6000671;23;20318;-68
2023/04/03 04:56:07;;;;;;;2.50;2.30;;;4.70;99.90;;;;;;6003123;23;20217;-68
2023/04/03 04:58:35;;;;;;;3.38;2.38;;;4.70;99.90;;;;;;6003098;23;20309;-68
2023/04/03 05:01:03;;;;;;;3.10;2.90;;;4.80;99.90;;;;;;6002997;23;20194;-68
2023/04/03 05:03:30;;;;;;;6.20;3.15;;;4.80;99.90;;;;;;5999904;23;20677;-68
2023/04/03 05:05:58;;;;;;;4.32;2.88;;;4.80;99.90;;;;;;6000608;23;20194;-68
2023/04/03 05:08:25;;;;;;;3.45;3.15;;;4.80;99.90;;;;;;5991218;23;20218;-69
2023/04/03 05:10:53;;;;;;;3.22;2.92;;;4.80;99.90;;;;;;6001255;23;20273;-68
2023/04/03 05:13:20;;;;;;;3.13;2.92;;;4.80;99.90;;;;;;6002456;23;20236;-69
2023/04/03 05:15:48;;;;;;;2.85;2.65;;;4.80;99.90;;;;;;5998493;23;20749;-68
2023/04/03 05:18:15;;;;;;;4.13;3.83;;;4.80;99.90;;;;;;5997627;23;20210;-69
2023/04/03 05:20:43;;;;;;;4.40;3.60;;;4.80;99.90;;;;;;5998901;23;20209;-68
2023/04/03 05:23:10;;;;;;;3.33;3.03;;;4.80;99.90;;;;;;5997895;23;20804;-69
2023/04/03 05:25:38;;;;;;;3.35;3.15;;;4.80;99.90;;;;;;5996229;23;20218;-68
2023/04/03 05:28:06;;;;;;;2.70;2.50;;;4.80;99.90;;;;;;6005665;23;20293;-68
2023/04/03 05:30:33;;;;;;;3.10;2.90;;;4.80;99.90;;;;;;6003055;23;20190;-69
2023/04/03 05:33:01;;;;;;;3.13;2.83;;;4.80;99.90;;;;;;5993379;23;20214;-68
2023/04/03 05:35:28;;;;;;;3.20;3.00;;;4.80;99.90;;;;;;6001014;23;20328;-69
2023/04/03 05:37:55;;;;;;;4.25;3.38;;;4.80;99.90;;;;;;6001740;23;20217;-69
2023/04/03 05:40:23;;;;;;;2.90;2.70;;;4.80;99.90;;;;;;6001550;23;20198;-68
2023/04/03 05:42:50;;;;;;;3.83;3.50;;;4.70;99.90;;;;;;6002260;23;20280;-68
2023/04/03 05:45:17;;;;;;;3.25;2.45;;;4.70;99.90;;;;;;6000746;23;20316;-68
2023/04/03 05:47:44;;;;;;;2.92;2.70;;;4.70;99.90;;;;;;6002277;23;20662;-68
2023/04/03 05:50:13;;;;;;;2.88;2.63;;;4.70;99.90;;;;;;6002360;23;20241;-68
2023/04/03 05:52:45;;;;;;;4.40;3.33;;;4.70;99.90;;;;;;5992824;23;21200;-71
2023/04/03 05:55:12;;;;;;;3.00;2.80;;;4.80;99.90;;;;;;5995729;23;20191;-70
2023/04/03 05:57:39;;;;;;;3.13;2.72;;;4.80;99.90;;;;;;5994390;23;20230;-70
2023/04/03 06:00:09;;;;;;;3.58;2.42;;;4.80;99.90;;;;;;6002372;23;20647;-69
2023/04/03 06:02:36;;;;;;;4.18;2.85;;;4.90;99.90;;;;;;5978476;23;20651;-69
2023/04/03 06:05:05;;;;;;;3.97;2.92;;;5.00;99.90;;;;;;5997002;23;20198;-69
2023/04/03 06:07:33;;;;;;;4.50;2.97;;;5.00;99.90;;;;;;5999523;23;20232;-70
2023/04/03 06:10:01;;;;;;;4.30;3.10;;;5.00;99.90;;;;;;6003647;23;20277;-69
2023/04/03 06:12:29;;;;;;;4.25;2.80;;;5.00;99.90;;;;;;5994365;23;20201;-68
2023/04/03 06:14:57;;;;;;;2.97;2.45;;;5.10;99.90;;;;;;6000614;23;20190;-69
2023/04/03 06:17:24;;;;;;;3.35;3.05;;;5.10;99.90;;;;;;6001656;23;20697;-69
2023/04/03 06:19:51;;;;;;;3.92;2.88;;;5.10;99.90;;;;;;6002774;23;20190;-69
2023/04/03 06:22:18;;;;;;;3.00;2.80;;;5.10;99.90;;;;;;5997434;23;20202;-69
2023/04/03 06:24:47;;;;;;;4.85;4.45;;;5.00;99.90;;;;;;6001361;23;20278;-69
2023/04/03 06:27:14;;;;;;;5.20;4.80;;;5.00;99.90;;;;;;6002948;23;20214;-69
2023/04/03 06:29:41;;;;;;;8.40;7.80;;;5.10;99.90;;;;;;6004632;23;20226;-69
2023/04/03 06:32:09;;;;;;;3.22;2.90;;;5.10;99.90;;;;;;6003203;23;20635;-69
2023/04/03 06:34:35;;;;;;;3.42;3.20;;;5.10;99.90;;;;;;6001501;23;20220;-69
2023/04/03 06:37:02;;;;;;;4.00;3.70;;;5.10;99.90;;;;;;5977213;24;20297;-70
2023/04/03 06:39:30;;;;;;;3.00;2.75;;;5.10;99.90;;;;;;5989256;23;20738;-69
2023/04/03 06:41:58;;;;;;;3.42;3.13;;;5.00;99.90;;;;;;6001290;23;20248;-69
2023/04/03 06:44:25;;;;;;;4.90;3.20;;;5.00;99.90;;;;;;6003109;23;20245;-69
2023/04/03 06:46:54;;;;;;;3.38;3.08;;;5.00;99.90;;;;;;5984875;23;20206;-69
2023/04/03 06:49:21;;;;;;;5.07;2.95;;;5.00;99.90;;;;;;5989080;23;20197;-69
2023/04/03 06:51:48;;;;;;;3.83;3.47;;;5.10;99.90;;;;;;5986622;23;20212;-69
2023/04/03 06:54:15;;;;;;;2.97;2.72;;;5.10;99.90;;;;;;5997334;23;20265;-70
2023/04/03 06:56:42;;;;;;;2.85;2.65;;;5.20;99.90;;;;;;5994985;23;20622;-69
2023/04/03 06:59:12;;;;;;;3.25;2.95;;;5.20;99.90;;;;;;5992619;23;20202;-69
2023/04/03 07:01:40;;;;;;;3.53;3.10;;;5.20;99.90;;;;;;5984658;23;20256;-70
2023/04/03 07:04:07;;;;;;;3.05;2.75;;;5.30;99.90;;;;;;5995345;23;20268;-70
2023/04/03 07:06:34;;;;;;;3.30;3.00;;;5.30;99.90;;;;;;5988495;23;20233;-70
2023/04/03 07:09:03;;;;;;;3.08;2.88;;;5.40;99.90;;;;;;5988029;23;20245;-70
2023/04/03 07:11:30;;;;;;;4.93;2.80;;;5.40;99.90;;;;;;5999530;23;20570;-69
2023/04/03 07:13:57;;;;;;;2.83;2.63;;;5.30;99.90;;;;;;5990946;23;20221;-70
2023/04/03 07:16:26;;;;;;;3.28;2.97;;;5.30;99.90;;;;;;5994616;23;20617;-70
2023/04/03 07:18:53;;;;;;;3.40;2.80;;;5.30;99.90;;;;;;5986286;23;20551;-68
2023/04/03 07:21:20;;;;;;;3.75;2.75;;;5.40;99.90;;;;;;5987861;23;20269;-68
2023/04/03 07:23:48;;;;;;;3.90;3.10;;;5.60;99.90;;;;;;5994670;23;20182;-70
2023/04/03 07:26:15;;;;;;;3.03;2.70;;;5.80;99.90;;;;;;5999453;23;20190;-70
2023/04/03 07:28:42;;;;;;;3.90;3.22;;;5.90;99.90;;;;;;6000688;23;20190;-69
2023/04/03 07:31:13;;;;;;;3.35;3.05;;;5.90;99.90;;;;;;5997538;23;20270;-69
2023/04/03 07:33:42;;;;;;;3.13;2.83;;;6.00;99.90;;;;;;6003719;23;20186;-71
2023/04/03 07:36:11;;;;;;;5.28;3.20;;;6.20;99.90;;;;;;5982910;23;20213;-69
2023/04/03 07:38:38;;;;;;;2.80;2.50;;;6.40;99.90;;;;;;5997354;23;20196;-70
2023/04/03 07:41:06;;;;;;;3.00;2.80;;;6.60;99.90;;;;;;5993191;23;20192;-70
2023/04/03 07:43:34;;;;;;;3.03;2.80;;;6.80;99.90;;;;;;5999820;23;20422;-70
2023/04/03 07:46:01;;;;;;;2.63;2.40;;;6.90;99.90;;;;;;5997145;23;20191;-70
2023/04/03 07:48:28;;;;;;;2.60;2.40;;;7.20;99.90;;;;;;5991216;23;20219;-69
2023/04/03 07:51:00;;;;;;;3.78;2.47;;;7.40;99.90;;;;;;6003594;23;20195;-69
2023/04/03 07:53:27;;;;;;;4.40;2.75;;;7.70;99.90;;;;;;6003306;23;20211;-70
2023/04/03 07:55:56;;;;;;;3.40;2.72;;;7.90;99.90;;;;;;6000683;23;20192;-70
2023/04/03 07:58:24;;;;;;;4.03;2.85;;;8.10;99.90;;;;;;5992442;23;20208;-69
2023/04/03 08:00:51;;;;;;;2.78;2.42;;;8.20;99.90;;;;;;5996825;23;20193;-70
2023/04/03 08:03:18;;;;;;;3.65;3.17;;;8.20;99.90;;;;;;6002961;23;20536;-69
2023/04/03 08:05:47;;;;;;;5.60;2.80;;;8.20;99.90;;;;;;6000404;23;20203;-69
2023/04/03 08:08:18;;;;;;;3.03;2.70;;;8.20;99.90;;;;;;5993906;23;20292;-67
2023/04/03 08:10:49;;;;;;;5.35;3.58;;;8.30;99.90;;;;;;5991679;23;20193;-83
2023/04/03 08:13:16;;;;;;;3.00;2.70;;;8.50;99.90;;;;;;6004590;23;20209;-68
2023/04/03 08:15:44;;;;;;;3.80;2.78;;;8.70;99.90;;;;;;6002417;23;20321;-69
2023/04/03 08:18:11;;;;;;;4.78;2.80;;;8.80;99.90;;;;;;6003979;23;20629;-68
2023/04/03 08:20:39;;;;;;;3.00;2.70;;;8.80;99.90;;;;;;6004286;23;20693;-68
2023/04/03 08:23:07;;;;;;;2.72;2.25;;;8.90;99.90;;;;;;5997706;23;20199;-69
2023/04/03 08:25:38;;;;;;;3.08;2.50;;;8.90;99.90;;;;;;6002465;23;20558;-69
2023/04/03 08:28:06;;;;;;;2.83;2.40;;;8.80;99.90;;;;;;6002586;23;20256;-69
2023/04/03 08:30:33;;;;;;;2.40;2.20;;;8.80;99.90;;;;;;6002997;23;20220;-69
2023/04/03 08:33:01;;;;;;;3.17;2.38;;;8.80;99.90;;;;;;6002676;23;20677;-69
2023/04/03 08:35:29;;;;;;;4.13;2.80;;;8.70;99.90;;;;;;6000952;23;20272;-69
2023/04/03 08:37:56;;;;;;;4.72;2.47;;;8.50;99.90;;;;;;6004829;23;20624;-69
2023/04/03 08:40:24;;;;;;;4.20;2.90;;;8.50;99.90;;;;;;6002229;23;20196;-69
2023/04/03 08:43:05;;;;;;;5.15;2.90;;;8.00;99.90;;;;;;5998712;23;20376;-69
2023/04/03 08:45:45;;;;;;;3.00;2.70;;;7.80;99.90;;;;;;5998560;23;20193;-68
2023/04/03 08:48:16;;;;;;;5.00;2.67;;;7.80;99.90;;;;;;6003466;23;20228;-69
2023/04/03 08:50:47;;;;;;;2.88;2.40;;;7.70;99.90;;;;;;6001695;23;20223;-69
2023/04/03 08:53:16;;;;;;;3.75;3.17;;;7.70;99.90;;;;;;5995487;23;20188;-69
2023/04/03 08:55:45;;;;;;;3.20;2.60;;;7.80;99.90;;;;;;6001582;23;20603;-69
2023/04/03 08:58:17;;;;;;;3.13;2.78;;;7.80;99.90;;;;;;6004023;23;20299;-69
2023/04/03 09:00:48;;;;;;;3.88;3.05;;;7.70;99.90;;;;;;5991430;23;20199;-69
2023/04/03 09:03:17;;;;;;;3.58;2.70;;;7.80;99.90;;;;;;5998812;23;20596;-68
2023/04/03 09:05:52;;;;;;;2.75;2.53;;;8.00;99.90;;;;;;6000608;23;20198;-69
2023/04/03 09:08:25;;;;;;;2.75;2.53;;;8.30;99.90;;;;;;5990567;23;20264;-69
2023/04/03 09:11:00;;;;;;;6.20;2.72;;;8.50;99.90;;;;;;5998128;23;20182;-69
2023/04/03 09:13:36;;;;;;;2.83;2.40;;;8.90;99.90;;;;;;5997966;23;20182;-69
2023/04/03 09:16:13;;;;;;;4.68;2.75;;;9.40;99.90;;;;;;5997298;23;20206;-69
2023/04/03 09:18:46;;;;;;;3.90;2.15;;;9.20;99.90;;;;;;5987267;23;20217;-68
2023/04/03 09:21:21;;;;;;;3.33;2.38;;;9.30;99.90;;;;;;6000761;23;20265;-68
2023/04/03 09:23:52;;;;;;;4.05;2.90;;;9.30;99.90;;;;;;5995857;23;20642;-69
2023/04/03 09:26:26;;;;;;;4.00;2.42;;;9.20;99.90;;;;;;6003083;23;20213;-68
2023/04/03 09:29:00;;;;;;;2.63;2.05;;;9.10;99.90;;;;;;5998525;23;20235;-69
2023/04/03 09:31:38;;;;;;;3.20;2.05;;;9.20;99.90;;;;;;6001668;23;20265;-69
2023/04/03 09:34:13;;;;;;;2.40;1.98;;;9.40;99.90;;;;;;5999335;23;20193;-68
2023/04/03 09:36:43;;;;;;;2.67;2.30;;;9.70;99.90;;;;;;6003352;23;20707;-68
2023/04/03 09:39:14;;;;;;;2.55;2.10;;;9.90;99.90;;;;;;6002830;23;20230;-68
2023/04/03 09:41:42;;;;;;;2.22;1.90;;;10.00;99.90;;;;;;5986009;23;20225;-68
2023/04/03 09:44:26;;;;;;;2.85;1.80;;;9.80;99.90;;;;;;6003509;23;20198;-68
2023/04/03 09:46:53;;;;;;;2.53;2.00;;;9.80;99.90;;;;;;5999213;23;20243;-69
2023/04/03 09:49:20;;;;;;;3.30;2.00;;;9.50;99.90;;;;;;5999000;23;20245;-68
2023/04/03 09:51:48;;;;;;;2.97;2.08;;;9.30;99.90;;;;;;6004199;23;20185;-68
2023/04/03 09:54:40;;;;;;;2.20;2.00;;;9.30;99.90;;;;;;6001813;23;20253;-68
2023/04/03 09:57:11;;;;;;;2.83;2.03;;;9.10;99.90;;;;;;5990092;23;20574;-68
2023/04/03 09:59:48;;;;;;;4.45;1.92;;;9.00;99.90;;;;;;5997980;23;20699;-69
2023/04/03 10:02:35;;;;;;;2.53;2.33;;;9.00;99.90;;;;;;6004171;23;20205;-79
2023/04/03 10:05:02;;;;;;;2.50;1.73;;;8.90;99.90;;;;;;6001117;23;20222;-70
2023/04/03 10:07:32;;;;;;;1.67;1.58;;;9.00;99.90;;;;;;6001002;23;20217;-71
2023/04/03 10:10:02;;;;;;;3.03;1.85;;;9.00;99.90;;;;;;5999428;23;20224;-70
2023/04/03 10:12:30;;;;;;;2.22;2.00;;;9.00;99.90;;;;;;5995170;23;20192;-69
2023/04/03 10:15:00;;;;;;;2.83;2.20;;;9.10;99.90;;;;;;5999346;23;20231;-69
2023/04/03 10:17:42;;;;;;;2.03;1.73;;;8.80;99.90;;;;;;5989706;23;20205;-69
2023/04/03 10:20:26;;;;;;;2.55;1.70;;;8.70;99.90;;;;;;5998120;23;20363;-69
2023/04/03 10:23:03;;;;;;;2.58;1.90;;;8.60;99.90;;;;;;5982732;23;20304;-69
2023/04/03 10:25:41;;;;;;;2.13;1.90;;;8.60;99.90;;;;;;5991903;23;20189;-69
2023/04/03 10:28:14;;;;;;;2.50;1.90;;;8.60;99.90;;;;;;5998797;23;20752;-69
2023/04/03 10:30:49;;;;;;;3.17;1.70;;;8.40;99.90;;;;;;5986186;23;20267;-69
2023/04/03 10:33:31;;;;;;;2.30;1.73;;;8.30;99.70;;;;;;6000224;23;20196;-69
2023/04/03 10:36:09;;;;;;;1.50;1.40;;;8.40;99.90;;;;;;5976880;24;20236;-69
2023/04/03 10:38:49;;;;;;;2.10;1.70;;;8.50;99.70;;;;;;5996002;23;20228;-69
2023/04/03 10:41:24;;;;;;;3.08;1.63;;;8.40;99.70;;;;;;6000133;23;20196;-70
2023/04/03 10:44:03;;;;;;;4.28;1.63;;;8.40;99.90;;;;;;5994254;23;20661;-71
2023/04/03 10:46:38;;;;;;;3.90;2.53;;;8.40;99.60;;;;;;5995374;23;20240;-71
2023/04/03 10:49:23;;;;;;;2.25;1.85;;;8.30;99.30;;;;;;5990536;23;20192;-69
2023/04/03 10:52:00;;;;;;;3.45;2.22;;;8.30;99.10;;;;;;5994782;23;20200;-69
2023/04/03 10:54:32;;;;;;;1.60;1.50;;;8.30;99.70;;;;;;5981723;23;20239;-69
2023/04/03 10:57:03;;;;;;;2.00;1.80;;;8.30;99.80;;;;;;5991693;23;20315;-69
2023/04/03 10:59:34;;;;;;;2.10;1.60;;;8.20;99.50;;;;;;6000116;23;20205;-69
2023/04/03 11:02:12;;;;;;;1.88;1.65;;;8.20;99.90;;;;;;5986987;23;20195;-69
2023/04/03 11:04:41;;;;;;;2.90;2.05;;;8.20;99.90;;;;;;5991369;23;20200;-69
2023/04/03 11:07:12;;;;;;;3.97;1.60;;;8.20;99.90;;;;;;5984207;23;20213;-69
2023/04/03 11:09:42;;;;;;;1.63;1.52;;;8.40;99.50;;;;;;5996416;23;20182;-70
2023/04/03 11:12:15;;;;;;;2.78;1.48;;;8.40;99.50;;;;;;6000340;23;20192;-70
2023/04/03 11:14:43;;;;;;;1.70;1.60;;;8.50;99.10;;;;;;5988068;23;20728;-70
2023/04/03 11:17:22;;;;;;;2.13;1.60;;;8.60;98.90;;;;;;6003510;23;20267;-69
2023/04/03 11:19:57;;;;;;;4.22;2.15;;;8.60;99.00;;;;;;6002372;23;20192;-69
2023/04/03 11:22:30;;;;;;;2.30;1.80;;;8.60;98.80;;;;;;6001597;23;20293;-69
2023/04/03 11:25:04;;;;;;;2.08;1.55;;;8.50;98.80;;;;;;5996921;23;20195;-69
2023/04/03 11:27:41;;;;;;;1.63;1.52;;;8.60;99.40;;;;;;6002231;23;20239;-69
2023/04/03 11:30:17;;;;;;;2.47;1.80;;;8.70;99.10;;;;;;6000983;23;20276;-69
2023/04/03 11:33:06;;;;;;;2.00;1.80;;;8.50;99.20;;;;;;5995082;23;20201;-69
2023/04/03 11:35:34;;;;;;;3.05;2.10;;;8.40;99.50;;;;;;5993166;23;20680;-70
2023/04/03 11:38:07;;;;;;;2.00;1.60;;;8.50;99.50;;;;;;5998954;23;20339;-69
2023/04/03 11:40:36;;;;;;;2.40;1.85;;;8.50;99.30;;;;;;5985056;23;20196;-70
2023/04/03 11:43:08;;;;;;;1.70;1.60;;;8.40;99.40;;;;;;5989427;23;20653;-69
2023/04/03 11:45:37;;;;;;;2.55;2.05;;;8.40;99.70;;;;;;5985702;23;20221;-70
2023/04/03 11:48:07;;;;;;;2.38;2.15;;;8.30;99.70;;;;;;5988514;23;20217;-71
2023/04/03 11:50:46;;;;;;;2.40;2.20;;;8.40;99.90;;;;;;5990286;23;20641;-71
2023/04/03 11:53:34;;;;;;;3.83;2.10;;;8.30;99.60;;;;;;5990126;23;20264;-70
2023/04/03 11:56:27;;;;;;;3.20;2.95;;;8.20;99.70;;;;;;5981630;23;20236;-70
2023/04/03 11:59:19;;;;;;;1.83;1.67;;;8.20;99.90;;;;;;5988574;23;20231;-70
2023/04/03 12:01:47;;;;;;;2.67;1.65;;;8.30;99.80;;;;;;5988300;23;20672;-70
2023/04/03 12:04:17;;;;;;;1.75;1.60;;;8.50;99.30;;;;;;5999589;23;20231;-70
2023/04/03 12:07:02;;;;;;;2.65;1.65;;;8.60;99.30;;;;;;5990248;23;20209;-70
2023/04/03 12:09:35;;;;;;;2.00;1.70;;;8.70;98.60;;;;;;5989616;23;20195;-71
2023/04/03 12:12:24;;;;;;;1.70;1.60;;;8.70;98.60;;;;;;5986296;23;20595;-70
2023/04/03 12:14:52;;;;;;;2.08;1.60;;;8.90;98.30;;;;;;5981942;23;20187;-71
2023/04/03 12:17:25;;;;;;;2.58;1.70;;;9.00;98.30;;;;;;5986819;23;20183;-71
2023/04/03 12:19:53;;;;;;;1.88;1.60;;;9.10;98.50;;;;;;5980708;23;20217;-90
2023/04/03 12:22:22;;;;;;;2.50;1.65;;;9.40;98.30;;;;;;5988378;23;20186;-70
2023/04/03 12:24:51;;;;;;;2.58;2.00;;;9.90;97.90;;;;;;5982866;23;20190;-72
2023/04/03 12:27:32;;;;;;;2.60;1.80;;;10.50;96.80;;;;;;6000101;23;20198;-71
2023/04/03 12:30:07;;;;;;;2.30;1.77;;;10.70;95.50;;;;;;5997088;23;20273;-71
2023/04/03 12:32:59;;;;;;;3.70;1.80;;;10.80;94.80;;;;;;5987563;23;20245;-72
2023/04/03 12:35:33;;;;;;;2.13;1.50;;;10.40;94.90;;;;;;5974312;23;20309;-71
2023/04/03 12:38:27;;;;;;;2.50;2.05;;;10.20;94.70;;;;;;5996961;23;20225;-73
2023/04/03 12:41:02;;;;;;;3.78;2.65;;;10.10;94.60;;;;;;5989327;23;20227;-72
2023/04/03 12:43:43;;;;;;;3.03;2.72;;;10.10;94.60;;;;;;6004406;23;20193;-91
2023/04/03 12:46:15;;;;;;;3.13;2.83;;;10.10;94.50;;;;;;5993075;23;20248;-72
2023/04/03 12:48:49;;;;;;;2.40;2.20;;;10.10;94.50;;;;;;5985218;23;20341;-70
2023/04/03 12:51:21;;;;;;;1.92;1.70;;;10.20;93.50;;;;;;6001932;23;20221;-70
2023/04/03 12:53:50;;;;;;;2.60;1.90;;;10.10;93.60;;;;;;5991273;23;20186;-72
2023/04/03 12:56:23;;;;;;;2.10;1.90;;;9.70;93.70;;;;;;6002969;23;20213;-72
2023/04/03 12:58:51;;;;;;;2.33;1.90;;;9.10;94.70;;;;;;5993604;23;20775;-72
2023/04/03 13:01:22;;;;;;;4.53;2.13;;;8.90;95.10;;;;;;5989741;23;20189;-71
2023/04/03 13:03:54;;;;;;;2.55;2.35;;;8.90;95.20;;;;;;5998578;23;20190;-71
2023/04/03 13:06:26;;;;;;;2.20;1.95;;;8.90;95.70;;;;;;5977563;24;20676;-72
2023/04/03 13:08:57;;;;;;;3.95;2.10;;;8.90;95.70;;;;;;5986763;23;20186;-71
2023/04/03 13:11:28;;;;;;;2.35;1.98;;;9.10;96.20;;;;;;5979730;23;20669;-72
2023/04/03 13:13:58;;;;;;;3.78;2.28;;;9.20;95.60;;;;;;6001521;23;20618;-71